createdAt,value
2019-05-05T00:00:52.121Z,1005.21
2019-05-05T00:01:52.099Z,1005.17
2019-05-05T00:02:52.112Z,1005.19
2019-05-05T00:03:52.101Z,1005.18
2019-05-05T00:04:54.304Z,1005.20
2019-05-05T00:05:52.059Z,1005.23
2019-05-05T00:06:52.109Z,1005.22
2019-05-05T00:07:54.067Z,1005.23
2019-05-05T00:08:52.034Z,1005.23
2019-05-05T00:09:52.043Z,1005.24
2019-05-05T00:10:54.531Z,1005.26
2019-05-05T00:11:52.362Z,1005.30
2019-05-05T00:12:51.988Z,1005.25
2019-05-05T00:13:51.998Z,1005.25
2019-05-05T00:14:51.967Z,1005.28
2019-05-05T00:15:51.967Z,1005.31
2019-05-05T00:16:51.936Z,1005.29
2019-05-05T00:17:51.950Z,1005.31
2019-05-05T00:18:54.134Z,1005.27
2019-05-05T00:19:51.906Z,1005.28
2019-05-05T00:20:51.898Z,1005.24
2019-05-05T00:21:52.393Z,1005.27
2019-05-05T00:22:51.884Z,1005.27
2019-05-05T00:23:51.862Z,1005.32
2019-05-05T00:24:51.864Z,1005.27
2019-05-05T00:25:51.888Z,1005.33
2019-05-05T00:26:51.859Z,1005.31
2019-05-05T00:27:51.817Z,1005.29
2019-05-05T00:28:51.823Z,1005.29
2019-05-05T00:29:51.791Z,1005.27
2019-05-05T00:30:51.783Z,1005.27
2019-05-05T00:31:51.779Z,1005.26
2019-05-05T00:32:51.802Z,1005.28
2019-05-05T00:33:51.783Z,1005.27
2019-05-05T00:34:51.782Z,1005.29
2019-05-05T00:35:51.749Z,1005.30
2019-05-05T00:36:51.728Z,1005.31
2019-05-05T00:37:51.709Z,1005.31
2019-05-05T00:38:51.714Z,1005.29
2019-05-05T00:39:51.685Z,1005.31
2019-05-05T00:40:51.675Z,1005.31
2019-05-05T00:41:51.745Z,1005.34
2019-05-05T00:42:51.667Z,1005.31
2019-05-05T00:43:51.680Z,1005.35
2019-05-05T00:44:51.639Z,1005.38
2019-05-05T00:45:51.629Z,1005.39
2019-05-05T00:46:51.609Z,1005.39
2019-05-05T00:47:51.602Z,1005.43
2019-05-05T00:48:51.628Z,1005.40
2019-05-05T00:49:51.595Z,1005.44
2019-05-05T00:50:51.885Z,1005.47
2019-05-05T00:51:51.575Z,1005.46
2019-05-05T00:52:51.543Z,1005.43
2019-05-05T00:53:51.541Z,1005.40
2019-05-05T00:54:51.545Z,1005.46
2019-05-05T00:55:51.508Z,1005.50
2019-05-05T00:56:51.517Z,1005.50
2019-05-05T00:57:51.495Z,1005.48
2019-05-05T00:58:51.506Z,1005.49
2019-05-05T00:59:51.485Z,1005.53
2019-05-05T01:00:51.471Z,1005.51
2019-05-05T01:01:51.443Z,1005.51
2019-05-05T01:02:51.442Z,1005.49
2019-05-05T01:03:51.435Z,1005.50
2019-05-05T01:04:51.429Z,1005.49
2019-05-05T01:05:51.431Z,1005.50
2019-05-05T01:06:51.429Z,1005.55
2019-05-05T01:07:51.381Z,1005.53
2019-05-05T01:08:51.386Z,1005.50
2019-05-05T01:09:51.378Z,1005.56
2019-05-05T01:10:51.365Z,1005.52
2019-05-05T01:11:51.827Z,1005.60
2019-05-05T01:12:51.332Z,1005.53
2019-05-05T01:13:51.315Z,1005.54
2019-05-05T01:14:51.315Z,1005.54
2019-05-05T01:15:51.295Z,1005.56
2019-05-05T01:16:51.848Z,1005.58
2019-05-05T01:17:51.274Z,1005.61
2019-05-05T01:18:51.278Z,1005.62
2019-05-05T01:20:01.163Z,1005.61
2019-05-05T01:20:52.245Z,1005.66
2019-05-05T01:21:51.234Z,1005.67
2019-05-05T01:22:51.251Z,1005.66
2019-05-05T01:23:51.248Z,1005.65
2019-05-05T01:24:51.198Z,1005.67
2019-05-05T01:25:51.189Z,1005.70
2019-05-05T01:26:51.175Z,1005.69
2019-05-05T01:27:51.165Z,1005.70
2019-05-05T01:28:51.169Z,1005.69
2019-05-05T01:29:51.164Z,1005.73
2019-05-05T01:30:51.129Z,1005.73
2019-05-05T01:31:51.143Z,1005.72
2019-05-05T01:32:51.118Z,1005.75
2019-05-05T01:33:51.114Z,1005.76
2019-05-05T01:34:51.160Z,1005.78
2019-05-05T01:35:51.098Z,1005.70
2019-05-05T01:36:51.066Z,1005.71
2019-05-05T01:37:51.052Z,1005.72
2019-05-05T01:38:51.043Z,1005.74
2019-05-05T01:39:51.031Z,1005.76
2019-05-05T01:40:51.047Z,1005.77
2019-05-05T01:41:51.017Z,1005.77
2019-05-05T01:42:51.002Z,1005.75
2019-05-05T01:43:51.080Z,1005.76
2019-05-05T01:44:50.994Z,1005.78
2019-05-05T01:45:50.968Z,1005.82
2019-05-05T01:46:50.973Z,1005.80
2019-05-05T01:47:50.944Z,1005.81
2019-05-05T01:48:50.935Z,1005.85
2019-05-05T01:49:50.995Z,1005.84
2019-05-05T01:50:50.920Z,1005.86
2019-05-05T01:51:50.908Z,1005.90
2019-05-05T01:52:50.890Z,1005.92
2019-05-05T01:53:50.892Z,1005.85
2019-05-05T01:54:50.893Z,1005.90
2019-05-05T01:55:50.891Z,1005.90
2019-05-05T01:56:52.344Z,1005.91
2019-05-05T01:57:50.852Z,1005.90
2019-05-05T01:58:50.832Z,1005.92
2019-05-05T01:59:50.822Z,1005.90
2019-05-05T02:00:50.860Z,1005.93
2019-05-05T02:01:50.794Z,1005.97
2019-05-05T02:02:50.812Z,1005.96
2019-05-05T02:03:50.774Z,1005.95
2019-05-05T02:04:50.782Z,1005.96
2019-05-05T02:05:50.768Z,1005.92
2019-05-05T02:06:50.737Z,1005.93
2019-05-05T02:07:50.805Z,1005.94
2019-05-05T02:08:50.724Z,1005.91
2019-05-05T02:09:50.711Z,1005.98
2019-05-05T02:10:50.697Z,1005.99
2019-05-05T02:11:50.693Z,1005.94
2019-05-05T02:12:50.674Z,1005.99
2019-05-05T02:13:50.715Z,1005.96
2019-05-05T02:14:50.660Z,1005.99
2019-05-05T02:15:50.644Z,1005.95
2019-05-05T02:16:50.636Z,1005.95
2019-05-05T02:17:50.622Z,1005.97
2019-05-05T02:18:50.612Z,1005.99
2019-05-05T02:19:50.617Z,1006.00
2019-05-05T02:20:50.624Z,1005.96
2019-05-05T02:21:50.578Z,1005.99
2019-05-05T02:22:50.567Z,1006.00
2019-05-05T02:23:50.567Z,1006.03
2019-05-05T02:24:50.575Z,1006.05
2019-05-05T02:25:50.532Z,1006.04
2019-05-05T02:26:50.524Z,1006.03
2019-05-05T02:27:50.534Z,1006.07
2019-05-05T02:28:50.505Z,1006.09
2019-05-05T02:29:50.539Z,1006.11
2019-05-05T02:30:50.551Z,1006.06
2019-05-05T02:31:50.488Z,1006.09
2019-05-05T02:32:50.476Z,1006.07
2019-05-05T02:33:50.450Z,1006.10
2019-05-05T02:34:50.488Z,1006.09
2019-05-05T02:35:50.436Z,1006.10
2019-05-05T02:36:50.428Z,1006.08
2019-05-05T02:37:50.425Z,1006.09
2019-05-05T02:38:50.391Z,1006.08
2019-05-05T02:39:57.617Z,1006.06
2019-05-05T02:40:51.384Z,1006.03
2019-05-05T02:41:50.382Z,1006.03
2019-05-05T02:42:50.355Z,1006.05
2019-05-05T02:43:50.367Z,1006.03
2019-05-05T02:44:50.328Z,1006.05
2019-05-05T02:45:50.811Z,1006.06
2019-05-05T02:46:50.332Z,1006.03
2019-05-05T02:47:50.379Z,1006.05
2019-05-05T02:48:50.304Z,1006.07
2019-05-05T02:49:50.295Z,1006.10
2019-05-05T02:50:55.907Z,1006.10
2019-05-05T02:51:51.271Z,1006.12
2019-05-05T02:52:50.258Z,1006.10
2019-05-05T02:53:50.229Z,1006.10
2019-05-05T02:54:50.222Z,1006.18
2019-05-05T02:55:50.208Z,1006.13
2019-05-05T02:56:50.210Z,1006.16
2019-05-05T02:57:50.188Z,1006.15
2019-05-05T02:58:50.218Z,1006.16
2019-05-05T02:59:50.161Z,1006.19
2019-05-05T03:00:50.154Z,1006.20
2019-05-05T03:01:50.199Z,1006.23
2019-05-05T03:02:50.128Z,1006.26
2019-05-05T03:03:50.119Z,1006.28
2019-05-05T03:04:50.140Z,1006.27
2019-05-05T03:05:50.095Z,1006.28
2019-05-05T03:06:50.095Z,1006.27
2019-05-05T03:07:50.101Z,1006.29
2019-05-05T03:08:50.064Z,1006.31
2019-05-05T03:09:50.783Z,1006.27
2019-05-05T03:10:50.042Z,1006.33
2019-05-05T03:11:50.041Z,1006.33
2019-05-05T03:12:50.033Z,1006.32
2019-05-05T03:13:50.050Z,1006.33
2019-05-05T03:14:50.023Z,1006.32
2019-05-05T03:15:49.989Z,1006.35
2019-05-05T03:16:49.979Z,1006.38
2019-05-05T03:17:49.995Z,1006.37
2019-05-05T03:18:49.964Z,1006.42
2019-05-05T03:19:49.955Z,1006.43
2019-05-05T03:21:01.663Z,1006.39
2019-05-05T03:21:51.019Z,1006.43
2019-05-05T03:22:49.930Z,1006.42
2019-05-05T03:23:49.902Z,1006.47
2019-05-05T03:24:49.913Z,1006.49
2019-05-05T03:25:49.876Z,1006.49
2019-05-05T03:26:49.869Z,1006.49
2019-05-05T03:27:50.300Z,1006.50
2019-05-05T03:28:49.850Z,1006.50
2019-05-05T03:29:49.835Z,1006.55
2019-05-05T03:30:50.774Z,1006.54
2019-05-05T03:31:49.821Z,1006.51
2019-05-05T03:32:49.816Z,1006.53
2019-05-05T03:33:49.862Z,1006.56
2019-05-05T03:34:50.767Z,1006.55
2019-05-05T03:35:49.778Z,1006.52
2019-05-05T03:36:49.772Z,1006.53
2019-05-05T03:37:49.757Z,1006.51
2019-05-05T03:38:49.761Z,1006.54
2019-05-05T03:39:49.737Z,1006.57
2019-05-05T03:40:49.713Z,1006.58
2019-05-05T03:41:49.754Z,1006.60
2019-05-05T03:42:49.701Z,1006.60
2019-05-05T03:43:50.271Z,1006.61
2019-05-05T03:44:49.686Z,1006.58
2019-05-05T03:45:49.664Z,1006.64
2019-05-05T03:46:50.265Z,1006.66
2019-05-05T03:47:49.637Z,1006.71
2019-05-05T03:48:49.661Z,1006.70
2019-05-05T03:49:49.661Z,1006.69
2019-05-05T03:50:49.620Z,1006.65
2019-05-05T03:51:49.601Z,1006.71
2019-05-05T03:52:49.581Z,1006.74
2019-05-05T03:53:49.591Z,1006.73
2019-05-05T03:54:49.580Z,1006.69
2019-05-05T03:55:49.564Z,1006.74
2019-05-05T03:56:49.543Z,1006.73
2019-05-05T03:57:49.566Z,1006.74
2019-05-05T03:58:49.519Z,1006.75
2019-05-05T03:59:49.526Z,1006.77
2019-05-05T04:00:49.518Z,1006.74
2019-05-05T04:01:49.488Z,1006.72
2019-05-05T04:02:57.803Z,1006.76
2019-05-05T04:03:57.017Z,1006.76
2019-05-05T04:04:57.013Z,1006.73
2019-05-05T04:05:49.497Z,1006.76
2019-05-05T04:06:57.951Z,1006.79
2019-05-05T04:07:57.990Z,1006.85
2019-05-05T04:08:49.411Z,1006.84
2019-05-05T04:09:49.405Z,1006.81
2019-05-05T04:10:58.015Z,1006.82
2019-05-05T04:11:59.056Z,1006.84
2019-05-05T04:12:58.575Z,1006.92
2019-05-05T04:13:56.922Z,1006.86
2019-05-05T04:14:56.892Z,1006.93
2019-05-05T04:15:49.343Z,1006.93
2019-05-05T04:16:49.330Z,1006.91
2019-05-05T04:17:49.446Z,1006.94
2019-05-05T04:18:49.658Z,1006.91
2019-05-05T04:19:49.293Z,1006.96
2019-05-05T04:20:49.297Z,1006.97
2019-05-05T04:21:49.274Z,1006.97
2019-05-05T04:22:49.286Z,1006.96
2019-05-05T04:23:49.648Z,1007.03
2019-05-05T04:24:49.245Z,1006.97
2019-05-05T04:25:49.247Z,1007.00
2019-05-05T04:26:49.218Z,1007.02
2019-05-05T04:27:49.245Z,1007.01
2019-05-05T04:28:49.249Z,1007.03
2019-05-05T04:29:49.183Z,1007.05
2019-05-05T04:30:49.177Z,1007.02
2019-05-05T04:31:49.163Z,1007.04
2019-05-05T04:32:49.152Z,1007.07
2019-05-05T04:33:49.184Z,1007.07
2019-05-05T04:34:49.147Z,1007.06
2019-05-05T04:35:49.118Z,1007.07
2019-05-05T04:36:49.110Z,1007.03
2019-05-05T04:37:49.105Z,1007.13
2019-05-05T04:38:49.084Z,1007.13
2019-05-05T04:39:49.090Z,1007.07
2019-05-05T04:40:49.123Z,1007.12
2019-05-05T04:41:49.054Z,1007.16
2019-05-05T04:42:49.095Z,1007.09
2019-05-05T04:43:49.036Z,1007.12
2019-05-05T04:44:49.032Z,1007.14
2019-05-05T04:45:49.041Z,1007.14
2019-05-05T04:46:49.009Z,1007.19
2019-05-05T04:47:48.988Z,1007.22
2019-05-05T04:48:48.986Z,1007.24
2019-05-05T04:49:48.970Z,1007.30
2019-05-05T04:50:49.057Z,1007.28
2019-05-05T04:51:50.410Z,1007.35
2019-05-05T04:52:48.964Z,1007.31
2019-05-05T04:53:48.942Z,1007.34
2019-05-05T04:54:48.916Z,1007.34
2019-05-05T04:55:48.900Z,1007.36
2019-05-05T04:56:48.911Z,1007.35
2019-05-05T04:57:48.893Z,1007.40
2019-05-05T04:58:48.891Z,1007.41
2019-05-05T04:59:48.856Z,1007.45
2019-05-05T05:00:48.864Z,1007.45
2019-05-05T05:01:48.876Z,1007.46
2019-05-05T05:02:48.831Z,1007.46
2019-05-05T05:03:48.846Z,1007.52
2019-05-05T05:04:48.807Z,1007.50
2019-05-05T05:05:48.818Z,1007.60
2019-05-05T05:06:48.797Z,1007.56
2019-05-05T05:07:48.788Z,1007.54
2019-05-05T05:08:48.767Z,1007.58
2019-05-05T05:09:48.754Z,1007.61
2019-05-05T05:10:48.736Z,1007.60
2019-05-05T05:11:48.726Z,1007.63
2019-05-05T05:12:48.766Z,1007.67
2019-05-05T05:13:48.701Z,1007.68
2019-05-05T05:14:48.700Z,1007.68
2019-05-05T05:15:48.683Z,1007.65
2019-05-05T05:16:48.678Z,1007.64
2019-05-05T05:17:48.659Z,1007.66
2019-05-05T05:18:48.671Z,1007.62
2019-05-05T05:19:49.610Z,1007.65
2019-05-05T05:20:48.636Z,1007.62
2019-05-05T05:21:59.355Z,1007.66
2019-05-05T05:22:49.607Z,1007.62
2019-05-05T05:23:48.609Z,1007.64
2019-05-05T05:24:48.640Z,1007.61
2019-05-05T05:25:48.575Z,1007.51
2019-05-05T05:26:48.564Z,1007.44
2019-05-05T05:27:48.559Z,1007.54
2019-05-05T05:28:48.558Z,1007.55
2019-05-05T05:29:48.527Z,1007.50
2019-05-05T05:30:48.543Z,1007.63
2019-05-05T05:31:48.516Z,1007.61
2019-05-05T05:32:48.498Z,1007.55
2019-05-05T05:33:48.637Z,1007.58
2019-05-05T05:34:48.550Z,1007.61
2019-05-05T05:35:48.462Z,1007.52
2019-05-05T05:36:48.463Z,1007.55
2019-05-05T05:37:48.540Z,1007.58
2019-05-05T05:38:48.494Z,1007.61
2019-05-05T05:39:48.422Z,1007.63
2019-05-05T05:40:48.417Z,1007.56
2019-05-05T05:41:48.411Z,1007.54
2019-05-05T05:42:51.158Z,1007.55
2019-05-05T05:43:48.389Z,1007.55
2019-05-05T05:44:48.395Z,1007.58
2019-05-05T05:45:49.106Z,1007.54
2019-05-05T05:46:48.354Z,1007.56
2019-05-05T05:47:49.334Z,1007.54
2019-05-05T05:48:48.503Z,1007.64
2019-05-05T05:49:48.339Z,1007.59
2019-05-05T05:50:48.368Z,1007.59
2019-05-05T05:51:48.293Z,1007.60
2019-05-05T05:52:48.272Z,1007.60
2019-05-05T05:53:48.259Z,1007.55
2019-05-05T05:54:48.258Z,1007.56
2019-05-05T05:55:48.392Z,1007.56
2019-05-05T05:56:48.632Z,1007.58
2019-05-05T05:58:04.854Z,1007.57
2019-05-05T05:58:48.219Z,1007.56
2019-05-05T05:59:49.122Z,1007.59
2019-05-05T06:00:48.218Z,1007.60
2019-05-05T06:01:48.629Z,1007.58
2019-05-05T06:02:49.143Z,1007.66
2019-05-05T06:03:48.148Z,1007.61
2019-05-05T06:04:51.104Z,1007.68
2019-05-05T06:05:49.169Z,1007.64
2019-05-05T06:06:51.631Z,1007.69
2019-05-05T06:07:48.255Z,1007.72
2019-05-05T06:08:48.609Z,1007.68
2019-05-05T06:09:48.080Z,1007.67
2019-05-05T06:10:48.113Z,1007.64
2019-05-05T06:11:48.913Z,1007.73
2019-05-05T06:12:48.089Z,1007.70
2019-05-05T06:13:48.037Z,1007.74
2019-05-05T06:14:48.608Z,1007.74
2019-05-05T06:15:48.048Z,1007.76
2019-05-05T06:16:48.043Z,1007.75
2019-05-05T06:17:48.309Z,1007.73
2019-05-05T06:18:47.985Z,1007.73
2019-05-05T06:19:48.708Z,1007.76
2019-05-05T06:20:47.959Z,1007.77
2019-05-05T06:21:47.949Z,1007.82
2019-05-05T06:22:48.012Z,1007.76
2019-05-05T06:23:48.665Z,1007.78
2019-05-05T06:24:47.915Z,1007.81
2019-05-05T06:25:47.910Z,1007.81
2019-05-05T06:26:47.891Z,1007.75
2019-05-05T06:27:48.607Z,1007.75
2019-05-05T06:28:47.914Z,1007.80
2019-05-05T06:29:47.890Z,1007.78
2019-05-05T06:30:50.669Z,1007.79
2019-05-05T06:31:50.606Z,1007.79
2019-05-05T06:32:47.826Z,1007.79
2019-05-05T06:33:47.838Z,1007.80
2019-05-05T06:34:47.896Z,1007.77
2019-05-05T06:35:47.815Z,1007.83
2019-05-05T06:36:50.609Z,1007.77
2019-05-05T06:37:47.774Z,1007.82
2019-05-05T06:38:47.786Z,1007.80
2019-05-05T06:39:49.626Z,1007.76
2019-05-05T06:40:48.830Z,1007.75
2019-05-05T06:41:47.851Z,1007.82
2019-05-05T06:42:47.883Z,1007.77
2019-05-05T06:43:50.636Z,1007.81
2019-05-05T06:44:47.707Z,1007.85
2019-05-05T06:45:47.704Z,1007.84
2019-05-05T06:46:47.898Z,1007.84
2019-05-05T06:47:54.662Z,1007.88
2019-05-05T06:48:47.692Z,1007.87
2019-05-05T06:49:47.644Z,1007.91
2019-05-05T06:50:47.628Z,1007.89
2019-05-05T06:51:47.619Z,1007.91
2019-05-05T06:52:47.859Z,1007.91
2019-05-05T06:53:47.625Z,1007.94
2019-05-05T06:54:47.595Z,1007.93
2019-05-05T06:55:47.574Z,1007.93
2019-05-05T06:56:47.560Z,1007.96
2019-05-05T06:57:47.787Z,1007.99
2019-05-05T06:58:47.570Z,1007.94
2019-05-05T06:59:47.843Z,1007.99
2019-05-05T07:00:47.576Z,1007.99
2019-05-05T07:01:50.142Z,1007.98
2019-05-05T07:02:47.504Z,1007.99
2019-05-05T07:03:47.801Z,1008.01
2019-05-05T07:04:47.504Z,1008.03
2019-05-05T07:05:47.499Z,1008.04
2019-05-05T07:06:54.175Z,1008.06
2019-05-05T07:07:49.118Z,1008.04
2019-05-05T07:08:47.435Z,1008.06
2019-05-05T07:09:47.649Z,1008.04
2019-05-05T07:11:04.088Z,1008.09
2019-05-05T07:11:48.602Z,1008.05
2019-05-05T07:12:47.390Z,1008.05
2019-05-05T07:13:50.805Z,1008.13
2019-05-05T07:14:47.367Z,1008.11
2019-05-05T07:16:08.360Z,1008.08
2019-05-05T07:16:48.228Z,1008.12
2019-05-05T07:17:47.334Z,1008.16
2019-05-05T07:18:47.320Z,1008.16
2019-05-05T07:19:47.632Z,1007.96
2019-05-05T07:20:47.313Z,1008.11
2019-05-05T07:21:47.394Z,1008.11
2019-05-05T07:22:58.746Z,1008.11
2019-05-05T07:23:49.165Z,1008.17
2019-05-05T07:24:48.115Z,1008.11
2019-05-05T07:25:47.267Z,1008.01
2019-05-05T07:26:47.255Z,1008.18
2019-05-05T07:27:48.362Z,1008.11
2019-05-05T07:28:47.791Z,1008.14
2019-05-05T07:29:47.689Z,1008.17
2019-05-05T07:30:48.194Z,1008.14
2019-05-05T07:31:50.147Z,1008.03
2019-05-05T07:32:50.107Z,1008.13
2019-05-05T07:33:47.178Z,1008.09
2019-05-05T07:34:48.116Z,1008.07
2019-05-05T07:35:56.639Z,1007.95
2019-05-05T07:36:47.122Z,1007.91
2019-05-05T07:37:47.690Z,1008.01
2019-05-05T07:38:47.616Z,1008.06
2019-05-05T07:39:47.324Z,1007.99
2019-05-05T07:40:47.160Z,1007.94
2019-05-05T07:41:47.087Z,1007.97
2019-05-05T07:42:47.136Z,1008.14
2019-05-05T07:43:47.050Z,1008.19
2019-05-05T07:44:47.036Z,1008.12
2019-05-05T07:45:47.122Z,1008.08
2019-05-05T07:46:47.036Z,1008.12
2019-05-05T07:47:47.639Z,1007.98
2019-05-05T07:48:47.028Z,1008.01
2019-05-05T07:49:46.986Z,1008.17
2019-05-05T07:50:58.696Z,1008.18
2019-05-05T07:51:48.246Z,1008.15
2019-05-05T07:52:46.951Z,1008.14
2019-05-05T07:53:47.993Z,1008.16
2019-05-05T07:54:46.924Z,1007.97
2019-05-05T07:55:49.611Z,1008.01
2019-05-05T07:56:47.612Z,1008.20
2019-05-05T07:57:47.146Z,1008.18
2019-05-05T07:58:46.884Z,1008.16
2019-05-05T07:59:47.647Z,1008.20
2019-05-05T08:00:46.863Z,1008.20
2019-05-05T08:01:46.937Z,1008.17
2019-05-05T08:02:46.852Z,1008.15
2019-05-05T08:03:47.132Z,1008.12
2019-05-05T08:04:47.612Z,1008.15
2019-05-05T08:05:46.806Z,1008.15
2019-05-05T08:06:46.809Z,1008.16
2019-05-05T08:07:46.793Z,1008.18
2019-05-05T08:08:46.800Z,1008.21
2019-05-05T08:09:46.770Z,1008.17
2019-05-05T08:10:49.664Z,1007.99
2019-05-05T08:11:46.733Z,1008.00
2019-05-05T08:12:46.747Z,1008.19
2019-05-05T08:13:47.665Z,1008.00
2019-05-05T08:14:46.793Z,1008.20
2019-05-05T08:15:56.797Z,1008.04
2019-05-05T08:16:47.675Z,1008.19
2019-05-05T08:17:46.665Z,1008.05
2019-05-05T08:18:46.670Z,1008.04
2019-05-05T08:19:46.647Z,1008.06
2019-05-05T08:20:46.651Z,1008.04
2019-05-05T08:21:47.621Z,1008.18
2019-05-05T08:22:47.612Z,1008.21
2019-05-05T08:23:46.630Z,1008.16
2019-05-05T08:24:46.593Z,1008.05
2019-05-05T08:25:46.605Z,1008.03
2019-05-05T08:26:46.713Z,1007.95
2019-05-05T08:27:53.699Z,1008.21
2019-05-05T08:28:46.633Z,1008.23
2019-05-05T08:29:47.155Z,1008.01
2019-05-05T08:30:46.681Z,1008.19
2019-05-05T08:31:46.694Z,1008.15
2019-05-05T08:32:54.512Z,1008.06
2019-05-05T08:33:46.608Z,1008.15
2019-05-05T08:34:56.885Z,1008.08
2019-05-05T08:35:47.485Z,1008.05
2019-05-05T08:36:50.740Z,1008.06
2019-05-05T08:37:46.530Z,1008.13
2019-05-05T08:38:55.725Z,1008.31
2019-05-05T08:41:07.337Z,1008.06
2019-05-05T08:44:57.658Z,1008.17
2019-05-05T08:45:57.639Z,1008.28
2019-05-05T08:47:13.789Z,1008.20
2019-05-05T08:48:04.981Z,1008.25
2019-05-05T08:48:58.602Z,1008.26
2019-05-05T08:49:57.641Z,1008.24
2019-05-05T08:51:14.117Z,1008.27
2019-05-05T08:54:05.216Z,1008.02
2019-05-05T08:55:08.820Z,1008.11
2019-05-05T08:55:57.634Z,1008.14
2019-05-05T08:56:57.318Z,1008.12
2019-05-05T08:57:59.848Z,1008.13
2019-05-05T08:58:58.023Z,1008.23
2019-05-05T08:59:57.965Z,1008.17
2019-05-05T09:00:57.948Z,1008.18
2019-05-05T09:01:58.852Z,1008.04
2019-05-05T09:02:57.284Z,1008.06
2019-05-05T09:04:18.563Z,1008.22
2019-05-05T09:04:57.037Z,1008.06
2019-05-05T09:06:13.739Z,1008.11
2019-05-05T09:06:58.086Z,1008.24
2019-05-05T09:08:18.308Z,1008.23
2019-05-05T09:08:57.872Z,1008.22
2019-05-05T09:09:57.046Z,1008.31
2019-05-05T09:10:58.166Z,1008.27
2019-05-05T09:11:56.922Z,1008.11
2019-05-05T09:12:57.134Z,1008.16
2019-05-05T09:13:58.289Z,1008.11
2019-05-05T09:14:56.946Z,1008.13
2019-05-05T09:15:56.884Z,1008.14
2019-05-05T09:16:59.826Z,1008.07
2019-05-05T09:17:57.136Z,1008.11
2019-05-05T09:18:57.315Z,1008.07
2019-05-05T09:19:57.824Z,1008.23
2019-05-05T09:20:56.815Z,1008.23
2019-05-05T09:21:57.902Z,1008.22
2019-05-05T09:22:57.352Z,1008.21
2019-05-05T09:24:01.712Z,1008.22
2019-05-05T09:24:56.837Z,1008.22
2019-05-05T09:25:56.761Z,1008.22
2019-05-05T09:26:57.377Z,1008.20
2019-05-05T09:27:56.757Z,1008.20
2019-05-05T09:28:59.561Z,1008.20
2019-05-05T09:29:57.943Z,1008.19
2019-05-05T09:30:57.086Z,1008.22
2019-05-05T09:32:17.717Z,1008.19
2019-05-05T09:32:57.291Z,1008.15
2019-05-05T09:33:57.405Z,1008.02
2019-05-05T09:34:56.984Z,1008.10
2019-05-05T09:35:56.822Z,1008.11
2019-05-05T09:36:56.672Z,1007.98
2019-05-05T09:38:00.299Z,1008.13
2019-05-05T09:38:56.620Z,1008.11
2019-05-05T09:39:58.513Z,1008.18
2019-05-05T09:40:56.619Z,1008.13
2019-05-05T09:41:57.340Z,1008.17
2019-05-05T09:42:57.473Z,1008.17
2019-05-05T09:43:57.467Z,1008.04
2019-05-05T09:44:56.552Z,1008.07
2019-05-05T09:45:56.545Z,1008.07
2019-05-05T09:47:04.789Z,1008.04
2019-05-05T09:48:20.596Z,1008.01
2019-05-05T09:48:57.312Z,1008.02
2019-05-05T09:49:56.516Z,1008.08
2019-05-05T09:50:57.297Z,1008.07
2019-05-05T09:51:59.494Z,1008.06
2019-05-05T09:52:56.493Z,1008.12
2019-05-05T09:54:11.121Z,1008.08
2019-05-05T09:54:58.307Z,1008.12
2019-05-05T09:55:56.490Z,1008.15
2019-05-05T09:56:57.377Z,1008.13
2019-05-05T09:57:57.597Z,1008.14
2019-05-05T09:58:56.478Z,1008.15
2019-05-05T09:59:57.818Z,1008.16
2019-05-05T10:01:17.391Z,1008.26
2019-05-05T10:01:56.359Z,1008.28
2019-05-05T10:02:57.523Z,1008.29
2019-05-05T10:03:57.364Z,1008.12
2019-05-05T10:04:56.516Z,1008.23
2019-05-05T10:05:59.391Z,1008.21
2019-05-05T10:06:57.303Z,1008.13
2019-05-05T10:07:56.843Z,1008.18
2019-05-05T10:09:01.317Z,1008.20
2019-05-05T10:09:56.305Z,1008.26
2019-05-05T10:10:57.989Z,1008.26
2019-05-05T10:11:58.793Z,1008.28
2019-05-05T10:12:56.236Z,1008.25
2019-05-05T10:13:57.905Z,1008.26
2019-05-05T10:15:07.209Z,1008.26
2019-05-05T10:15:59.044Z,1008.20
2019-05-05T10:16:56.229Z,1008.17
2019-05-05T10:17:56.297Z,1008.20
2019-05-05T10:19:01.562Z,1008.18
2019-05-05T10:19:56.154Z,1008.20
2019-05-05T10:20:56.855Z,1008.16
2019-05-05T10:21:57.188Z,1008.10
2019-05-05T10:22:56.378Z,1008.15
2019-05-05T10:23:57.578Z,1008.10
2019-05-05T10:24:58.907Z,1008.18
2019-05-05T10:25:56.111Z,1008.28
2019-05-05T10:26:58.782Z,1008.26
2019-05-05T10:27:56.323Z,1008.25
2019-05-05T10:28:56.100Z,1008.28
2019-05-05T10:29:56.094Z,1008.32
2019-05-05T10:30:56.038Z,1008.30
2019-05-05T10:31:56.928Z,1008.32
2019-05-05T10:33:03.751Z,1008.34
2019-05-05T10:33:56.907Z,1008.36
2019-05-05T10:34:56.030Z,1008.35
2019-05-05T10:35:56.559Z,1008.28
2019-05-05T10:36:55.965Z,1008.32
2019-05-05T10:37:55.948Z,1008.32
2019-05-05T10:38:55.943Z,1008.33
2019-05-05T10:39:56.824Z,1008.33
2019-05-05T10:40:55.947Z,1008.37
2019-05-05T10:41:56.834Z,1008.37
2019-05-05T10:42:58.837Z,1008.36
2019-05-05T10:43:55.889Z,1008.35
2019-05-05T10:44:56.321Z,1008.39
2019-05-05T10:45:56.060Z,1008.32
2019-05-05T10:46:55.961Z,1008.30
2019-05-05T10:47:58.793Z,1008.28
2019-05-05T10:48:59.619Z,1008.30
2019-05-05T10:49:55.834Z,1008.29
2019-05-05T10:50:56.839Z,1008.28
2019-05-05T10:51:55.825Z,1008.28
2019-05-05T10:52:55.785Z,1008.24
2019-05-05T10:53:58.324Z,1008.30
2019-05-05T10:54:56.020Z,1008.27
2019-05-05T10:55:55.788Z,1008.33
2019-05-05T10:56:55.780Z,1008.32
2019-05-05T10:57:55.785Z,1008.33
2019-05-05T10:58:58.476Z,1008.36
2019-05-05T11:00:09.392Z,1008.30
2019-05-05T11:00:59.956Z,1008.28
2019-05-05T11:01:57.401Z,1008.33
2019-05-05T11:02:55.868Z,1008.34
2019-05-05T11:03:55.694Z,1008.32
2019-05-05T11:04:55.646Z,1008.33
2019-05-05T11:05:55.634Z,1008.35
2019-05-05T11:06:55.654Z,1008.32
2019-05-05T11:07:55.789Z,1008.30
2019-05-05T11:08:55.629Z,1008.36
2019-05-05T11:09:55.696Z,1008.34
2019-05-05T11:10:55.574Z,1008.40
2019-05-05T11:11:56.156Z,1008.40
2019-05-05T11:12:55.574Z,1008.32
2019-05-05T11:13:55.551Z,1008.37
2019-05-05T11:14:55.560Z,1008.38
2019-05-05T11:15:56.387Z,1008.40
2019-05-05T11:16:58.295Z,1008.35
2019-05-05T11:17:56.368Z,1008.45
2019-05-05T11:18:56.323Z,1008.45
2019-05-05T11:19:55.517Z,1008.45
2019-05-05T11:21:06.117Z,1008.43
2019-05-05T11:25:00.127Z,1008.46
2019-05-05T11:27:13.151Z,1008.47
2019-05-05T11:28:09.694Z,1008.43
2019-05-05T11:29:10.605Z,1008.36
2019-05-05T11:30:10.251Z,1008.40
2019-05-05T11:31:09.652Z,1008.41
2019-05-05T11:32:09.777Z,1008.41
2019-05-05T11:33:09.632Z,1008.41
2019-05-05T11:34:09.614Z,1008.42
2019-05-05T11:35:09.602Z,1008.39
2019-05-05T11:36:10.108Z,1008.39
2019-05-05T11:37:09.701Z,1008.39
2019-05-05T11:38:09.573Z,1008.49
2019-05-05T11:39:09.571Z,1008.45
2019-05-05T11:40:09.547Z,1008.40
2019-05-05T11:41:09.685Z,1008.38
2019-05-05T11:42:09.534Z,1008.40
2019-05-05T11:43:09.551Z,1008.42
2019-05-05T11:44:09.519Z,1008.44
2019-05-05T11:45:09.499Z,1008.47
2019-05-05T11:46:09.513Z,1008.48
2019-05-05T11:47:09.526Z,1008.45
2019-05-05T11:48:10.182Z,1008.53
2019-05-05T11:49:09.463Z,1008.51
2019-05-05T11:50:09.438Z,1008.50
2019-05-05T11:51:09.485Z,1008.50
2019-05-05T11:52:09.415Z,1008.45
2019-05-05T11:53:09.432Z,1008.49
2019-05-05T11:54:09.392Z,1008.50
2019-05-05T11:55:12.178Z,1008.52
2019-05-05T11:56:09.382Z,1008.54
2019-05-05T11:57:09.786Z,1008.52
2019-05-05T11:58:09.537Z,1008.48
2019-05-05T11:59:09.345Z,1008.53
2019-05-05T12:00:09.341Z,1008.51
2019-05-05T12:01:09.318Z,1008.43
2019-05-05T12:02:10.105Z,1008.50
2019-05-05T12:03:09.356Z,1008.48
2019-05-05T12:04:09.397Z,1008.50
2019-05-05T12:05:09.463Z,1008.50
2019-05-05T12:06:09.266Z,1008.48
2019-05-05T12:07:09.381Z,1008.46
2019-05-05T12:08:09.264Z,1008.49
2019-05-05T12:09:09.232Z,1008.49
2019-05-05T12:10:09.306Z,1008.35
2019-05-05T12:11:09.204Z,1008.36
2019-05-05T12:12:09.201Z,1008.39
2019-05-05T12:13:09.189Z,1008.42
2019-05-05T12:14:09.186Z,1008.37
2019-05-05T12:15:09.184Z,1008.44
2019-05-05T12:16:09.395Z,1008.38